Louis Armstrong New Orleans International Airport (MSY/KMSY)




Flight Aircraft Arriving
CPX431 B752
B738
KBNA - Nashville International Airport
United StatesTennessee Nashville, Tennessee
Flight Aircraft Departing
CPX404 B752
B738
KBNA - Nashville International Airport
United StatesTennessee Nashville, Tennessee
Airport Information
Location: New Orleans, US
Coordinates: 29.9933 / -90.259
Elevation:
Time Offset:
Local Time:
UTC Time:
Jet A Price: $1.04/lbs

Current Weather
METAR: KMSY 310653Z 18007KT 10SM SCT080 25/22 A2988 RMK AO2 SLP122 T02500217 $
TAF: KMSY 310520Z 3106/0112 13009KT P6SM BKN250 FM310900 20009KT P6SM VCSH SCT015 OVC045 FM311500 25014G22KT P6SM SCT020 BKN025 FM311900 28015G24KT P6SM BKN130 FM010000 34013KT P6SM SKC

Recent Arrivals
Date Flight Type Depart
12/21/2019 CPX404 B752 Nashville International Airport (KBNA)
09/19/2019 CPX404 B752 Nashville International Airport (KBNA)
06/11/2019 CPX404 B752 Nashville International Airport (KBNA)
02/14/2019 CPX404 B752 Nashville International Airport (KBNA)
Recent Departures
Date Flight Type Arrive
03/06/2020 CPX431 B752 Nashville International Airport (KBNA)
09/22/2019 CPX431 B752 Nashville International Airport (KBNA)
06/11/2019 CPX431 B752 Nashville International Airport (KBNA)
02/17/2019 CPX431 B752 Nashville International Airport (KBNA)